createdAt,value
2022-10-01T00:01:49.676Z,100300.25
2022-10-01T00:04:51.678Z,100307.66
2022-10-01T00:07:53.484Z,100295.91
2022-10-01T00:10:55.344Z,100284.22
2022-10-01T00:13:57.354Z,100285.25
2022-10-01T00:16:59.317Z,100304.78
2022-10-01T00:20:01.355Z,100381.97
2022-10-01T00:23:03.313Z,100408.88
2022-10-01T00:26:25.614Z,100306.75
2022-10-01T00:29:27.468Z,100259.88
2022-10-01T00:32:32.362Z,100305.41
2022-10-01T00:35:34.161Z,100311.16
2022-10-01T00:38:36.614Z,100302.56
2022-10-01T00:41:38.658Z,100300.69
2022-10-01T00:44:40.546Z,100293.38
2022-10-01T00:47:44.762Z,100292.62
2022-10-01T00:50:49.140Z,100279.28
2022-10-01T00:53:51.287Z,100287.09
2022-10-01T00:56:53.762Z,100289.16
2022-10-01T00:59:57.044Z,100283.25
2022-10-01T01:02:58.809Z,100279.94
2022-10-01T01:06:00.747Z,100290.53
2022-10-01T01:09:03.432Z,100293.66
2022-10-01T01:12:07.858Z,100294.16
2022-10-01T01:15:12.702Z,100292.72
2022-10-01T01:18:19.197Z,100282.84
2022-10-01T01:21:21.867Z,100275.81
2022-10-01T01:24:38.579Z,100290.34
2022-10-01T01:27:49.718Z,100288.31
2022-10-01T01:30:52.066Z,100295.72
2022-10-01T01:33:53.928Z,100306.59
2022-10-01T01:36:58.707Z,100306.00
2022-10-01T01:40:00.705Z,100309.84
2022-10-01T01:43:05.698Z,100305.47
2022-10-01T01:46:07.928Z,100299.88
2022-10-01T01:49:09.910Z,100308.81
2022-10-01T01:52:15.974Z,100302.47
2022-10-01T01:55:19.162Z,100297.34
2022-10-01T01:58:21.003Z,100293.50
2022-10-01T02:01:35.381Z,100283.00
2022-10-01T02:04:39.930Z,100281.03
2022-10-01T02:07:42.988Z,100289.81
2022-10-01T02:10:44.805Z,100289.72
2022-10-01T02:13:48.514Z,100277.94
2022-10-01T02:16:51.302Z,100268.50
2022-10-01T02:20:01.381Z,100263.31
2022-10-01T02:23:05.450Z,100269.91
2022-10-01T02:26:08.750Z,100270.84
2022-10-01T02:29:11.414Z,100284.41
2022-10-01T02:32:13.600Z,100283.19
2022-10-01T02:35:16.242Z,100297.81
2022-10-01T02:38:18.097Z,100289.16
2022-10-01T02:41:23.327Z,100296.44
2022-10-01T02:44:26.451Z,100289.22
2022-10-01T02:47:39.525Z,100290.00
2022-10-01T02:50:43.113Z,100293.19
2022-10-01T02:53:47.269Z,100286.16
2022-10-01T02:57:07.894Z,100282.72
2022-10-01T03:00:11.213Z,100289.44
2022-10-01T03:03:13.132Z,100290.38
2022-10-01T03:06:14.943Z,100292.84
2022-10-01T03:09:16.785Z,100303.12
2022-10-01T03:12:18.809Z,100301.66
2022-10-01T03:15:20.945Z,100295.41
2022-10-01T03:18:22.952Z,100290.66
2022-10-01T03:21:24.806Z,100272.13
2022-10-01T03:24:26.693Z,100278.78
2022-10-01T03:27:28.559Z,100279.47
2022-10-01T03:30:30.666Z,100283.34
2022-10-01T03:33:32.642Z,100289.47
2022-10-01T03:36:34.478Z,100300.03
2022-10-01T03:39:36.278Z,100305.41
2022-10-01T03:42:38.125Z,100319.88
2022-10-01T03:45:39.987Z,100340.81
2022-10-01T03:48:41.858Z,100333.22
2022-10-01T03:51:45.189Z,100337.72
2022-10-01T03:54:47.101Z,100334.22
2022-10-01T03:57:49.032Z,100326.28
2022-10-01T04:00:51.087Z,100319.63
2022-10-01T04:03:55.166Z,100305.72
2022-10-01T04:06:57.002Z,100299.00
2022-10-01T04:09:58.834Z,100284.06
2022-10-01T04:13:01.252Z,100281.00
2022-10-01T04:16:03.769Z,100275.78
2022-10-01T04:19:05.605Z,100284.56
2022-10-01T04:22:07.490Z,100285.44
2022-10-01T04:25:10.961Z,100290.50
2022-10-01T04:28:13.319Z,100280.31
2022-10-01T04:31:24.574Z,100280.91
2022-10-01T04:34:46.465Z,100278.56
2022-10-01T04:37:48.529Z,100285.09
2022-10-01T04:40:50.411Z,100290.09
2022-10-01T04:43:52.269Z,100286.44
2022-10-01T04:46:54.322Z,100288.75
2022-10-01T04:49:56.223Z,100280.38
2022-10-01T04:52:58.018Z,100276.59
2022-10-01T04:55:59.837Z,100291.72
2022-10-01T04:59:01.845Z,100288.88
2022-10-01T05:02:03.830Z,100290.75
2022-10-01T05:05:06.279Z,100290.53
2022-10-01T05:08:08.210Z,100290.69
2022-10-01T05:11:10.036Z,100292.03
2022-10-01T05:14:12.130Z,100299.00
2022-10-01T05:17:18.360Z,100300.63
2022-10-01T05:20:21.567Z,100308.78
2022-10-01T05:23:23.431Z,100325.47
2022-10-01T05:26:25.341Z,100345.91
2022-10-01T05:29:27.266Z,100345.06
2022-10-01T05:32:29.101Z,100335.97
2022-10-01T05:35:31.350Z,100331.00
2022-10-01T05:38:37.200Z,100327.66
2022-10-01T05:41:41.009Z,100336.56
2022-10-01T05:44:46.244Z,100325.44
2022-10-01T05:47:49.976Z,100319.31
2022-10-01T05:50:51.787Z,100308.53
2022-10-01T05:53:54.157Z,100304.22
2022-10-01T05:56:56.503Z,100311.19
2022-10-01T05:59:58.388Z,100304.13
2022-10-01T06:03:01.317Z,100308.37
2022-10-01T06:06:05.474Z,100309.50
2022-10-01T06:09:07.407Z,100299.28
2022-10-01T06:12:09.829Z,100296.56
2022-10-01T06:15:12.371Z,100297.97
2022-10-01T06:18:14.669Z,100280.75
2022-10-01T06:21:16.625Z,100281.09
2022-10-01T06:24:18.495Z,100282.06
2022-10-01T06:27:20.405Z,100266.50
2022-10-01T06:30:22.375Z,100266.69
2022-10-01T06:33:24.254Z,100249.84
2022-10-01T06:36:26.162Z,100262.12
2022-10-01T06:39:28.204Z,100282.13
2022-10-01T06:42:30.022Z,100304.22
2022-10-01T06:45:31.937Z,100311.06
2022-10-01T06:48:35.524Z,100298.72
2022-10-01T06:51:56.102Z,100295.19
2022-10-01T06:55:00.169Z,100287.75
2022-10-01T06:58:02.915Z,100286.66
2022-10-01T07:01:05.042Z,100291.19
2022-10-01T07:04:07.136Z,100285.03
2022-10-01T07:07:08.953Z,100286.84
2022-10-01T07:10:11.445Z,100292.25
2022-10-01T07:13:14.232Z,100290.72
2022-10-01T07:16:16.222Z,100299.56
2022-10-01T07:19:18.143Z,100284.53
2022-10-01T07:22:20.104Z,100288.41
2022-10-01T07:25:21.961Z,100275.44
2022-10-01T07:28:26.037Z,100283.53
2022-10-01T07:31:27.920Z,100267.69
2022-10-01T07:34:32.878Z,100263.41
2022-10-01T07:37:34.769Z,100262.97
2022-10-01T07:40:36.628Z,100246.84
2022-10-01T07:43:39.683Z,100244.69
2022-10-01T07:46:41.806Z,100246.19
2022-10-01T07:49:43.606Z,100243.44
2022-10-01T07:52:45.480Z,100236.13
2022-10-01T07:55:47.321Z,100251.13
2022-10-01T07:58:49.146Z,100270.34
2022-10-01T08:01:51.992Z,100256.91
2022-10-01T08:05:12.805Z,100250.25
2022-10-01T08:08:14.608Z,100245.69
2022-10-01T08:11:18.165Z,100258.63
2022-10-01T08:14:20.166Z,100253.94
2022-10-01T08:17:24.969Z,100254.16
2022-10-01T08:20:29.253Z,100242.50
2022-10-01T08:23:33.535Z,100244.25
2022-10-01T08:26:35.349Z,100252.84
2022-10-01T08:29:37.322Z,100257.00
2022-10-01T08:32:39.269Z,100259.91
2022-10-01T08:35:41.478Z,100255.56
2022-10-01T08:38:47.053Z,100252.47
2022-10-01T08:41:51.897Z,100236.94
2022-10-01T08:44:53.750Z,100222.25
2022-10-01T08:47:58.645Z,100216.97
2022-10-01T08:51:05.009Z,100210.81
2022-10-01T08:54:26.428Z,100207.16
2022-10-01T08:57:29.671Z,100209.41
2022-10-01T09:00:32.780Z,100206.72
2022-10-01T09:03:34.683Z,100211.50
2022-10-01T09:06:37.815Z,100208.31
2022-10-01T09:09:45.046Z,100201.75
2022-10-01T09:12:46.955Z,100198.94
2022-10-01T09:15:51.119Z,100187.34
2022-10-01T09:19:02.582Z,100203.66
2022-10-01T09:22:08.044Z,100203.28
2022-10-01T09:25:09.830Z,100200.41
2022-10-01T09:28:16.119Z,100201.88
2022-10-01T09:31:17.957Z,100206.47
2022-10-01T09:34:25.791Z,100200.75
2022-10-01T09:37:33.620Z,100199.56
2022-10-01T09:40:47.851Z,100188.34
2022-10-01T09:43:49.729Z,100183.37
2022-10-01T09:46:51.603Z,100183.69
2022-10-01T09:49:53.457Z,100192.06
2022-10-01T09:52:55.246Z,100189.28
2022-10-01T09:55:58.689Z,100196.66
2022-10-01T09:59:02.129Z,100174.84
2022-10-01T10:02:04.682Z,100176.16
2022-10-01T10:05:07.981Z,100170.31
2022-10-01T10:08:14.150Z,100159.37
2022-10-01T10:11:21.697Z,100160.59
2022-10-01T10:14:34.198Z,100164.06
2022-10-01T10:17:38.066Z,100155.09
2022-10-01T10:20:40.510Z,100160.13
2022-10-01T10:23:49.553Z,100145.31
2022-10-01T10:26:52.745Z,100148.87
2022-10-01T10:30:01.551Z,100135.97
2022-10-01T10:33:04.394Z,100129.81
2022-10-01T10:36:06.306Z,100133.47
2022-10-01T10:39:15.322Z,100123.44
2022-10-01T10:42:19.018Z,100133.00
2022-10-01T10:45:38.029Z,100114.41
2022-10-01T10:48:44.317Z,100111.81
2022-10-01T10:51:48.761Z,100119.31
2022-10-01T10:54:54.269Z,100105.50
2022-10-01T10:57:57.995Z,100106.94
2022-10-01T11:01:01.791Z,100104.72
2022-10-01T11:04:03.949Z,100102.97
2022-10-01T11:07:06.130Z,100097.63
2022-10-01T11:10:15.464Z,100090.03
2022-10-01T11:13:18.605Z,100098.25
2022-10-01T11:16:29.597Z,100093.91
2022-10-01T11:19:37.906Z,100080.53
2022-10-01T11:22:43.521Z,100066.38
2022-10-01T11:25:49.293Z,100056.09
2022-10-01T11:28:55.371Z,100042.53
2022-10-01T11:32:17.539Z,100031.28
2022-10-01T11:35:22.575Z,100040.53
2022-10-01T11:38:36.254Z,100030.87
2022-10-01T11:41:45.138Z,100019.41
2022-10-01T11:44:49.067Z,100024.28
2022-10-01T11:47:52.717Z,100014.00
2022-10-01T11:50:55.088Z,100008.28
2022-10-01T11:53:58.725Z,100012.94
2022-10-01T11:57:19.363Z,100007.19
2022-10-01T12:00:24.095Z,99998.94
2022-10-01T12:03:30.891Z,99994.37
2022-10-01T12:06:38.475Z,99993.75
2022-10-01T12:09:52.129Z,99992.87
2022-10-01T12:13:04.445Z,99983.44
2022-10-01T12:16:20.081Z,99977.31
2022-10-01T12:19:34.883Z,99975.22
2022-10-01T12:22:37.413Z,99979.63
2022-10-01T12:25:57.393Z,99971.44
2022-10-01T12:29:00.492Z,99967.38
2022-10-01T12:32:05.391Z,99959.78
2022-10-01T12:35:18.553Z,99958.66
2022-10-01T12:38:32.618Z,99965.25
2022-10-01T12:41:53.387Z,99963.63
2022-10-01T12:45:01.201Z,99968.91
2022-10-01T12:48:07.129Z,99973.53
2022-10-01T12:51:21.022Z,99975.00
2022-10-01T12:54:32.186Z,99974.00
2022-10-01T12:57:37.845Z,99969.75
2022-10-01T13:00:42.327Z,99953.91
2022-10-01T13:03:50.397Z,99956.09
2022-10-01T13:06:52.210Z,99944.00
2022-10-01T13:10:03.135Z,99926.97
2022-10-01T13:13:12.447Z,99920.03
2022-10-01T13:16:29.727Z,99907.50
2022-10-01T13:19:34.516Z,99892.22
2022-10-01T13:22:36.352Z,99891.31
2022-10-01T13:25:50.554Z,99892.00
2022-10-01T13:28:52.396Z,99897.00
2022-10-01T13:31:57.262Z,99895.72
2022-10-01T13:34:59.636Z,99873.91
2022-10-01T13:38:01.822Z,99880.53
2022-10-01T13:41:05.050Z,99890.41
2022-10-01T13:44:11.531Z,99879.28
2022-10-01T13:47:13.405Z,99873.75
2022-10-01T13:50:24.701Z,99869.66
2022-10-01T13:53:26.795Z,99865.81
2022-10-01T13:56:29.775Z,99863.59
2022-10-01T13:59:37.753Z,99868.66
2022-10-01T14:02:40.598Z,99860.66
2022-10-01T14:05:42.858Z,99847.44
2022-10-01T14:08:47.656Z,99860.44
2022-10-01T14:12:13.079Z,99867.00
2022-10-01T14:15:43.139Z,99871.34
2022-10-01T14:18:45.041Z,99870.78
2022-10-01T14:22:19.440Z,99874.28
2022-10-01T14:25:40.196Z,99865.34
2022-10-01T14:28:57.602Z,99871.37
2022-10-01T14:32:02.542Z,99873.91
2022-10-01T14:35:07.532Z,99883.19
2022-10-01T14:38:18.855Z,99868.66
2022-10-01T14:41:21.249Z,99875.03
2022-10-01T14:44:26.212Z,99869.91
2022-10-01T14:47:34.908Z,99868.75
2022-10-01T14:50:37.440Z,99857.69
2022-10-01T14:53:40.723Z,99855.59
2022-10-01T14:56:42.688Z,99852.22
2022-10-01T14:59:45.985Z,99849.50
2022-10-01T15:02:49.236Z,99844.41
2022-10-01T15:05:51.226Z,99850.09
2022-10-01T15:08:54.772Z,99855.97
2022-10-01T15:11:56.650Z,99849.25
2022-10-01T15:14:58.426Z,99863.06
2022-10-01T15:18:03.299Z,99863.81
2022-10-01T15:21:06.441Z,99871.37
2022-10-01T15:24:13.558Z,99870.03
2022-10-01T15:27:16.257Z,99875.03
2022-10-01T15:30:18.405Z,99894.16
2022-10-01T15:33:26.764Z,99888.88
2022-10-01T15:36:28.626Z,99897.69
2022-10-01T15:39:33.757Z,99898.62
2022-10-01T15:42:36.004Z,99899.44
2022-10-01T15:45:37.825Z,99891.84
2022-10-01T15:48:39.645Z,99902.59
2022-10-01T15:51:45.782Z,99895.28
2022-10-01T15:54:48.705Z,99896.31
2022-10-01T15:57:51.597Z,99899.25
2022-10-01T16:00:57.851Z,99899.81
2022-10-01T16:04:06.768Z,99904.06
2022-10-01T16:07:16.493Z,99908.50
2022-10-01T16:10:35.156Z,99907.94
2022-10-01T16:13:41.155Z,99901.84
2022-10-01T16:16:43.144Z,99907.72
2022-10-01T16:19:45.004Z,99903.53
2022-10-01T16:22:46.834Z,99899.59
2022-10-01T16:25:48.995Z,99900.66
2022-10-01T16:28:53.289Z,99906.94
2022-10-01T16:31:55.231Z,99906.00
2022-10-01T16:35:09.623Z,99901.66
2022-10-01T16:38:12.599Z,99907.88
2022-10-01T16:41:15.534Z,99913.28
2022-10-01T16:44:17.348Z,99916.38
2022-10-01T16:47:19.146Z,99927.47
2022-10-01T16:50:21.798Z,99921.91
2022-10-01T16:53:24.859Z,99918.81
2022-10-01T16:56:27.395Z,99920.84
2022-10-01T16:59:29.273Z,99910.47
2022-10-01T17:02:31.211Z,99915.31
2022-10-01T17:05:34.130Z,99911.94
2022-10-01T17:08:36.193Z,99912.06
2022-10-01T17:11:38.967Z,99899.47
2022-10-01T17:14:40.776Z,99907.69
2022-10-01T17:17:42.999Z,99910.22
2022-10-01T17:20:45.987Z,99916.06
2022-10-01T17:23:51.264Z,99903.53
2022-10-01T17:26:55.253Z,99903.22
2022-10-01T17:29:57.246Z,99900.31
2022-10-01T17:33:02.463Z,99904.78
2022-10-01T17:36:07.935Z,99912.53
2022-10-01T17:39:09.738Z,99904.53
2022-10-01T17:42:11.601Z,99909.59
2022-10-01T17:45:13.830Z,99913.72
2022-10-01T17:48:18.913Z,99911.91
2022-10-01T17:51:24.069Z,99918.31
2022-10-01T17:54:26.128Z,99925.06
2022-10-01T17:57:27.986Z,99923.09
2022-10-01T18:00:29.817Z,99929.94
2022-10-01T18:03:31.679Z,99935.28
2022-10-01T18:06:33.759Z,99921.91
2022-10-01T18:09:36.111Z,99934.88
2022-10-01T18:12:38.071Z,99924.97
2022-10-01T18:15:40.049Z,99928.34
2022-10-01T18:22:13.564Z,99918.78
2022-10-01T18:25:16.203Z,99951.56
2022-10-01T18:28:19.015Z,99958.38
2022-10-01T18:31:26.695Z,99967.88
2022-10-01T18:34:55.174Z,99968.69
2022-10-01T18:37:58.985Z,99972.31
2022-10-01T18:41:02.816Z,99975.22
2022-10-01T18:44:05.143Z,99974.44
2022-10-01T18:47:25.334Z,99985.16
2022-10-01T18:50:33.128Z,99994.03
2022-10-01T18:53:36.383Z,99990.44
2022-10-01T18:56:40.618Z,99990.62
2022-10-01T18:59:46.537Z,100002.09
2022-10-01T19:03:03.645Z,99983.63
2022-10-01T19:06:24.405Z,99996.19
2022-10-01T19:09:52.790Z,99994.47
2022-10-01T19:13:16.148Z,99997.94
2022-10-01T19:16:23.940Z,99993.97
2022-10-01T19:19:34.107Z,100001.50
2022-10-01T19:22:45.104Z,100003.41
2022-10-01T19:25:54.740Z,99996.28
2022-10-01T19:28:59.556Z,99999.25
2022-10-01T19:32:02.405Z,100004.62
2022-10-01T19:35:15.966Z,100009.94
2022-10-01T19:38:25.534Z,100006.34
2022-10-01T19:41:30.435Z,99995.44
2022-10-01T19:44:37.526Z,99999.88
2022-10-01T19:47:51.889Z,100012.19
2022-10-01T19:50:56.015Z,100008.41
2022-10-01T19:54:01.040Z,100017.81
2022-10-01T19:57:09.040Z,100002.50
2022-10-01T20:00:17.539Z,100012.78
2022-10-01T20:03:21.821Z,100022.50
2022-10-01T20:06:30.811Z,100023.56
2022-10-01T20:09:35.661Z,100015.25
2022-10-01T20:12:43.555Z,100021.75
2022-10-01T20:15:57.874Z,100029.53
2022-10-01T20:19:05.965Z,100014.84
2022-10-01T20:22:16.122Z,100014.09
2022-10-01T20:25:24.573Z,100024.94
2022-10-01T20:28:44.696Z,100027.72
2022-10-01T20:31:57.774Z,100032.34
2022-10-01T20:35:20.823Z,100030.34
2022-10-01T20:38:23.542Z,100043.25
2022-10-01T20:41:25.356Z,100032.34
2022-10-01T20:44:28.431Z,100038.94
2022-10-01T20:47:50.570Z,100046.87
2022-10-01T20:50:54.023Z,100044.78
2022-10-01T20:53:57.171Z,100059.81
2022-10-01T20:56:59.174Z,100052.62
2022-10-01T21:00:08.492Z,100065.34
2022-10-01T21:03:27.036Z,100074.72
2022-10-01T21:06:35.317Z,100080.31
2022-10-01T21:09:44.564Z,100089.22
2022-10-01T21:12:48.714Z,100100.09
2022-10-01T21:16:01.255Z,100105.44
2022-10-01T21:19:06.352Z,100104.31
2022-10-01T21:22:24.404Z,100103.97
2022-10-01T21:25:44.862Z,100109.22
2022-10-01T21:28:56.496Z,100134.66
2022-10-01T21:32:15.598Z,100125.94
2022-10-01T21:35:36.072Z,100119.63
2022-10-01T21:38:47.089Z,100122.50
2022-10-01T21:41:57.863Z,100133.13
2022-10-01T21:44:59.733Z,100133.09
2022-10-01T21:48:11.196Z,100127.81
2022-10-01T21:51:17.028Z,100132.22
2022-10-01T21:54:24.911Z,100138.87
2022-10-01T21:57:43.321Z,100122.66
2022-10-01T22:00:51.487Z,100126.28
2022-10-01T22:03:57.881Z,100118.75
2022-10-01T22:07:02.669Z,100132.69
2022-10-01T22:10:16.214Z,100118.16
2022-10-01T22:13:22.483Z,100126.03
2022-10-01T22:16:26.381Z,100131.06
2022-10-01T22:19:29.193Z,100122.59
2022-10-01T22:22:35.617Z,100124.41
2022-10-01T22:25:40.748Z,100125.16
2022-10-01T22:28:42.874Z,100112.78
2022-10-01T22:31:44.831Z,100112.66
2022-10-01T22:34:48.167Z,100125.19
2022-10-01T22:37:57.015Z,100121.56
2022-10-01T22:41:06.156Z,100126.34
2022-10-01T22:44:18.218Z,100124.28
2022-10-01T22:47:39.012Z,100134.47
2022-10-01T22:50:49.809Z,100150.47
2022-10-01T22:53:54.416Z,100146.78
2022-10-01T22:57:03.271Z,100150.78
2022-10-01T23:00:07.340Z,100157.06
2022-10-01T23:03:25.957Z,100163.75
2022-10-01T23:06:27.886Z,100175.19
2022-10-01T23:09:33.267Z,100177.56
2022-10-01T23:12:35.109Z,100175.81
2022-10-01T23:15:55.040Z,100172.19
2022-10-01T23:18:56.809Z,100159.59
2022-10-01T23:22:07.737Z,100164.44
2022-10-01T23:25:28.593Z,100160.50
2022-10-01T23:28:40.570Z,100163.34
2022-10-01T23:31:42.649Z,100153.50
2022-10-01T23:35:04.795Z,100145.03
2022-10-01T23:38:17.236Z,100157.75
2022-10-01T23:41:21.213Z,100161.72
2022-10-01T23:44:25.662Z,100159.19
2022-10-01T23:47:30.127Z,100153.75
2022-10-01T23:50:32.069Z,100166.81
2022-10-01T23:53:45.583Z,100166.34
2022-10-01T23:56:50.341Z,100170.91
2022-10-01T23:59:52.270Z,100182.50
